sensor_id;sensor_type;location;lat;lon;timestamp;temperature;humidity
78345;DHT22;67620;51.134;6.548;2023-04-24T00:01:40;11.30;68.80
78345;DHT22;67620;51.134;6.548;2023-04-24T00:04:06;11.30;68.90
78345;DHT22;67620;51.134;6.548;2023-04-24T00:06:32;11.30;69.00
78345;DHT22;67620;51.134;6.548;2023-04-24T00:08:59;11.40;68.90
78345;DHT22;67620;51.134;6.548;2023-04-24T00:11:26;11.10;68.80
78345;DHT22;67620;51.134;6.548;2023-04-24T00:13:52;11.10;69.50
78345;DHT22;67620;51.134;6.548;2023-04-24T00:16:17;11.10;68.60
78345;DHT22;67620;51.134;6.548;2023-04-24T00:18:43;11.10;68.60
78345;DHT22;67620;51.134;6.548;2023-04-24T00:21:10;11.20;68.70
78345;DHT22;67620;51.134;6.548;2023-04-24T00:23:36;11.10;68.60
78345;DHT22;67620;51.134;6.548;2023-04-24T00:26:01;11.10;68.80
78345;DHT22;67620;51.134;6.548;2023-04-24T00:28:27;11.10;68.90
78345;DHT22;67620;51.134;6.548;2023-04-24T00:30:53;11.20;68.80
78345;DHT22;67620;51.134;6.548;2023-04-24T00:33:18;11.10;69.00
78345;DHT22;67620;51.134;6.548;2023-04-24T00:35:44;11.10;68.90
78345;DHT22;67620;51.134;6.548;2023-04-24T00:38:10;11.20;68.50
78345;DHT22;67620;51.134;6.548;2023-04-24T00:40:35;11.20;68.30
78345;DHT22;67620;51.134;6.548;2023-04-24T00:43:01;11.20;68.20
78345;DHT22;67620;51.134;6.548;2023-04-24T00:45:26;11.20;68.40
78345;DHT22;67620;51.134;6.548;2023-04-24T00:47:53;11.10;68.60
78345;DHT22;67620;51.134;6.548;2023-04-24T00:50:18;11.00;67.80
78345;DHT22;67620;51.134;6.548;2023-04-24T00:52:44;11.10;67.90
78345;DHT22;67620;51.134;6.548;2023-04-24T00:55:10;11.10;68.00
78345;DHT22;67620;51.134;6.548;2023-04-24T00:57:37;10.90;67.40
78345;DHT22;67620;51.134;6.548;2023-04-24T01:00:04;10.70;68.80
78345;DHT22;67620;51.134;6.548;2023-04-24T01:02:31;10.80;68.80
78345;DHT22;67620;51.134;6.548;2023-04-24T01:05:00;10.70;69.30
78345;DHT22;67620;51.134;6.548;2023-04-24T01:07:26;10.80;69.00
78345;DHT22;67620;51.134;6.548;2023-04-24T01:09:52;10.70;69.30
78345;DHT22;67620;51.134;6.548;2023-04-24T01:12:18;10.70;68.90
78345;DHT22;67620;51.134;6.548;2023-04-24T01:14:45;10.60;69.40
78345;DHT22;67620;51.134;6.548;2023-04-24T01:17:11;10.70;69.30
78345;DHT22;67620;51.134;6.548;2023-04-24T01:19:37;10.50;69.80
78345;DHT22;67620;51.134;6.548;2023-04-24T01:22:08;10.50;70.00
78345;DHT22;67620;51.134;6.548;2023-04-24T01:24:33;10.30;70.40
78345;DHT22;67620;51.134;6.548;2023-04-24T01:26:59;10.30;70.80
78345;DHT22;67620;51.134;6.548;2023-04-24T01:29:26;10.50;69.70
78345;DHT22;67620;51.134;6.548;2023-04-24T01:31:52;10.40;70.10
78345;DHT22;67620;51.134;6.548;2023-04-24T01:34:17;10.50;70.70
78345;DHT22;67620;51.134;6.548;2023-04-24T01:36:45;10.50;70.40
78345;DHT22;67620;51.134;6.548;2023-04-24T01:39:12;10.50;71.00
78345;DHT22;67620;51.134;6.548;2023-04-24T01:41:37;10.60;70.60
78345;DHT22;67620;51.134;6.548;2023-04-24T01:44:03;10.40;70.90
78345;DHT22;67620;51.134;6.548;2023-04-24T01:46:29;10.30;71.00
78345;DHT22;67620;51.134;6.548;2023-04-24T01:48:58;10.20;71.40
78345;DHT22;67620;51.134;6.548;2023-04-24T01:51:24;10.40;71.70
78345;DHT22;67620;51.134;6.548;2023-04-24T01:53:50;10.40;70.70
78345;DHT22;67620;51.134;6.548;2023-04-24T01:56:16;10.50;71.10
78345;DHT22;67620;51.134;6.548;2023-04-24T01:58:41;10.40;70.90
78345;DHT22;67620;51.134;6.548;2023-04-24T02:01:08;10.50;70.60
78345;DHT22;67620;51.134;6.548;2023-04-24T02:03:33;10.40;70.80
78345;DHT22;67620;51.134;6.548;2023-04-24T02:05:59;10.50;71.10
78345;DHT22;67620;51.134;6.548;2023-04-24T02:08:24;10.50;70.70
78345;DHT22;67620;51.134;6.548;2023-04-24T02:10:50;10.40;70.60
78345;DHT22;67620;51.134;6.548;2023-04-24T02:13:16;10.40;71.10
78345;DHT22;67620;51.134;6.548;2023-04-24T02:15:41;10.30;71.40
78345;DHT22;67620;51.134;6.548;2023-04-24T02:18:07;10.40;71.60
78345;DHT22;67620;51.134;6.548;2023-04-24T02:20:32;10.50;71.70
78345;DHT22;67620;51.134;6.548;2023-04-24T02:23:00;10.50;71.00
78345;DHT22;67620;51.134;6.548;2023-04-24T02:25:26;10.40;72.20
78345;DHT22;67620;51.134;6.548;2023-04-24T02:27:51;10.50;71.80
78345;DHT22;67620;51.134;6.548;2023-04-24T02:30:17;10.60;71.30
78345;DHT22;67620;51.134;6.548;2023-04-24T02:32:42;10.40;71.50
78345;DHT22;67620;51.134;6.548;2023-04-24T02:35:08;10.40;71.90
78345;DHT22;67620;51.134;6.548;2023-04-24T02:37:34;10.30;71.70
78345;DHT22;67620;51.134;6.548;2023-04-24T02:39:59;10.30;72.20
78345;DHT22;67620;51.134;6.548;2023-04-24T02:42:25;10.30;72.10
78345;DHT22;67620;51.134;6.548;2023-04-24T02:44:50;10.30;72.00
78345;DHT22;67620;51.134;6.548;2023-04-24T02:47:16;10.40;71.40
78345;DHT22;67620;51.134;6.548;2023-04-24T02:49:42;10.40;71.70
78345;DHT22;67620;51.134;6.548;2023-04-24T02:52:07;10.30;71.20
78345;DHT22;67620;51.134;6.548;2023-04-24T02:54:33;10.30;71.40
78345;DHT22;67620;51.134;6.548;2023-04-24T02:56:58;10.30;71.30
78345;DHT22;67620;51.134;6.548;2023-04-24T02:59:24;10.30;71.90
78345;DHT22;67620;51.134;6.548;2023-04-24T03:01:52;10.40;71.50
78345;DHT22;67620;51.134;6.548;2023-04-24T03:04:17;10.40;71.40
78345;DHT22;67620;51.134;6.548;2023-04-24T03:06:45;10.30;71.50
78345;DHT22;67620;51.134;6.548;2023-04-24T03:09:11;10.30;71.80
78345;DHT22;67620;51.134;6.548;2023-04-24T03:11:36;10.30;71.80
78345;DHT22;67620;51.134;6.548;2023-04-24T03:14:02;10.20;71.90
78345;DHT22;67620;51.134;6.548;2023-04-24T03:16:27;10.30;72.00
78345;DHT22;67620;51.134;6.548;2023-04-24T03:18:53;10.20;72.00
78345;DHT22;67620;51.134;6.548;2023-04-24T03:21:18;10.30;71.60
78345;DHT22;67620;51.134;6.548;2023-04-24T03:23:44;10.30;71.60
78345;DHT22;67620;51.134;6.548;2023-04-24T03:26:10;10.20;71.70
78345;DHT22;67620;51.134;6.548;2023-04-24T03:28:35;10.20;71.50
78345;DHT22;67620;51.134;6.548;2023-04-24T03:31:02;10.30;71.70
78345;DHT22;67620;51.134;6.548;2023-04-24T03:33:27;10.20;71.10
78345;DHT22;67620;51.134;6.548;2023-04-24T03:35:53;10.20;72.40
78345;DHT22;67620;51.134;6.548;2023-04-24T03:38:18;10.20;71.90
78345;DHT22;67620;51.134;6.548;2023-04-24T03:40:44;10.20;72.00
78345;DHT22;67620;51.134;6.548;2023-04-24T03:43:09;10.10;72.50
78345;DHT22;67620;51.134;6.548;2023-04-24T03:45:35;10.10;72.20
78345;DHT22;67620;51.134;6.548;2023-04-24T03:48:01;10.10;72.10
78345;DHT22;67620;51.134;6.548;2023-04-24T03:50:26;10.30;71.90
78345;DHT22;67620;51.134;6.548;2023-04-24T03:52:52;10.20;71.50
78345;DHT22;67620;51.134;6.548;2023-04-24T03:55:17;10.10;71.80
78345;DHT22;67620;51.134;6.548;2023-04-24T03:57:43;10.00;72.30
78345;DHT22;67620;51.134;6.548;2023-04-24T04:00:09;10.10;72.70
78345;DHT22;67620;51.134;6.548;2023-04-24T04:02:35;10.00;72.50
78345;DHT22;67620;51.134;6.548;2023-04-24T04:05:00;9.90;72.70
78345;DHT22;67620;51.134;6.548;2023-04-24T04:07:26;9.90;73.10
78345;DHT22;67620;51.134;6.548;2023-04-24T04:09:51;9.80;73.70
78345;DHT22;67620;51.134;6.548;2023-04-24T04:12:17;10.10;72.70
78345;DHT22;67620;51.134;6.548;2023-04-24T04:14:42;9.90;73.20
78345;DHT22;67620;51.134;6.548;2023-04-24T04:17:08;10.00;73.00
78345;DHT22;67620;51.134;6.548;2023-04-24T04:19:33;10.10;72.60
78345;DHT22;67620;51.134;6.548;2023-04-24T04:21:59;10.10;72.40
78345;DHT22;67620;51.134;6.548;2023-04-24T04:24:24;10.10;72.60
78345;DHT22;67620;51.134;6.548;2023-04-24T04:26:51;10.10;72.60
78345;DHT22;67620;51.134;6.548;2023-04-24T04:29:17;10.00;72.20
78345;DHT22;67620;51.134;6.548;2023-04-24T04:31:46;9.90;72.30
78345;DHT22;67620;51.134;6.548;2023-04-24T04:34:11;10.10;72.10
78345;DHT22;67620;51.134;6.548;2023-04-24T04:36:37;10.00;72.80
78345;DHT22;67620;51.134;6.548;2023-04-24T04:39:05;10.00;72.00
78345;DHT22;67620;51.134;6.548;2023-04-24T04:41:31;9.90;71.90
78345;DHT22;67620;51.134;6.548;2023-04-24T04:43:56;10.00;72.60
78345;DHT22;67620;51.134;6.548;2023-04-24T04:46:24;9.90;72.80
78345;DHT22;67620;51.134;6.548;2023-04-24T04:48:52;10.00;72.70
78345;DHT22;67620;51.134;6.548;2023-04-24T04:51:17;9.90;71.60
78345;DHT22;67620;51.134;6.548;2023-04-24T04:53:42;9.80;72.60
78345;DHT22;67620;51.134;6.548;2023-04-24T04:56:08;9.80;72.40
78345;DHT22;67620;51.134;6.548;2023-04-24T04:58:33;9.90;72.50
78345;DHT22;67620;51.134;6.548;2023-04-24T05:00:59;9.90;72.50
78345;DHT22;67620;51.134;6.548;2023-04-24T05:03:25;9.80;73.60
78345;DHT22;67620;51.134;6.548;2023-04-24T05:05:50;9.70;74.40
78345;DHT22;67620;51.134;6.548;2023-04-24T05:08:16;9.80;74.90
78345;DHT22;67620;51.134;6.548;2023-04-24T05:10:41;9.80;75.50
78345;DHT22;67620;51.134;6.548;2023-04-24T05:13:07;9.80;75.30
78345;DHT22;67620;51.134;6.548;2023-04-24T05:15:33;9.70;75.70
78345;DHT22;67620;51.134;6.548;2023-04-24T05:17:58;9.70;75.70
78345;DHT22;67620;51.134;6.548;2023-04-24T05:20:24;9.70;75.90
78345;DHT22;67620;51.134;6.548;2023-04-24T05:22:50;9.60;76.50
78345;DHT22;67620;51.134;6.548;2023-04-24T05:25:15;9.60;75.90
78345;DHT22;67620;51.134;6.548;2023-04-24T05:27:41;9.60;75.40
78345;DHT22;67620;51.134;6.548;2023-04-24T05:30:07;9.50;76.90
78345;DHT22;67620;51.134;6.548;2023-04-24T05:32:33;9.60;76.90
78345;DHT22;67620;51.134;6.548;2023-04-24T05:34:58;9.50;76.40
78345;DHT22;67620;51.134;6.548;2023-04-24T05:37:24;9.50;76.40
78345;DHT22;67620;51.134;6.548;2023-04-24T05:39:49;9.60;75.00
78345;DHT22;67620;51.134;6.548;2023-04-24T05:42:15;9.50;75.90
78345;DHT22;67620;51.134;6.548;2023-04-24T05:44:40;9.50;76.00
78345;DHT22;67620;51.134;6.548;2023-04-24T05:47:06;9.40;76.50
78345;DHT22;67620;51.134;6.548;2023-04-24T05:49:31;9.40;76.10
78345;DHT22;67620;51.134;6.548;2023-04-24T05:51:57;9.50;76.20
78345;DHT22;67620;51.134;6.548;2023-04-24T05:54:22;9.50;76.10
78345;DHT22;67620;51.134;6.548;2023-04-24T05:56:49;9.50;76.30
78345;DHT22;67620;51.134;6.548;2023-04-24T05:59:15;9.70;76.20
78345;DHT22;67620;51.134;6.548;2023-04-24T06:01:41;9.50;76.20
78345;DHT22;67620;51.134;6.548;2023-04-24T06:04:07;9.40;77.40
78345;DHT22;67620;51.134;6.548;2023-04-24T06:06:32;9.30;78.80
78345;DHT22;67620;51.134;6.548;2023-04-24T06:08:58;9.40;77.80
78345;DHT22;67620;51.134;6.548;2023-04-24T06:11:24;9.50;78.60
78345;DHT22;67620;51.134;6.548;2023-04-24T06:13:50;9.40;78.20
78345;DHT22;67620;51.134;6.548;2023-04-24T06:16:15;9.40;78.50
78345;DHT22;67620;51.134;6.548;2023-04-24T06:18:41;9.50;78.50
78345;DHT22;67620;51.134;6.548;2023-04-24T06:21:06;9.40;79.20
78345;DHT22;67620;51.134;6.548;2023-04-24T06:23:32;9.30;80.40
78345;DHT22;67620;51.134;6.548;2023-04-24T06:25:58;9.30;80.50
78345;DHT22;67620;51.134;6.548;2023-04-24T06:28:24;9.30;80.20
78345;DHT22;67620;51.134;6.548;2023-04-24T06:30:50;9.20;81.10
78345;DHT22;67620;51.134;6.548;2023-04-24T06:33:16;9.40;80.50
78345;DHT22;67620;51.134;6.548;2023-04-24T06:35:41;9.30;80.60
78345;DHT22;67620;51.134;6.548;2023-04-24T06:38:07;9.30;80.30
78345;DHT22;67620;51.134;6.548;2023-04-24T06:40:33;9.30;81.10
78345;DHT22;67620;51.134;6.548;2023-04-24T06:42:58;9.20;81.20
78345;DHT22;67620;51.134;6.548;2023-04-24T06:45:25;9.20;81.50
78345;DHT22;67620;51.134;6.548;2023-04-24T06:47:51;9.30;81.10
78345;DHT22;67620;51.134;6.548;2023-04-24T06:50:16;9.40;81.40
78345;DHT22;67620;51.134;6.548;2023-04-24T06:52:42;9.30;80.60
78345;DHT22;67620;51.134;6.548;2023-04-24T06:55:08;9.30;80.50
78345;DHT22;67620;51.134;6.548;2023-04-24T06:57:34;9.20;81.30
78345;DHT22;67620;51.134;6.548;2023-04-24T06:59:59;9.30;80.90
78345;DHT22;67620;51.134;6.548;2023-04-24T07:02:25;9.40;80.50
78345;DHT22;67620;51.134;6.548;2023-04-24T07:04:51;9.40;80.20
78345;DHT22;67620;51.134;6.548;2023-04-24T07:07:16;9.30;81.30
78345;DHT22;67620;51.134;6.548;2023-04-24T07:09:42;9.20;81.80
78345;DHT22;67620;51.134;6.548;2023-04-24T07:12:08;9.10;82.30
78345;DHT22;67620;51.134;6.548;2023-04-24T07:14:33;9.10;80.90
78345;DHT22;67620;51.134;6.548;2023-04-24T07:16:59;9.20;81.60
78345;DHT22;67620;51.134;6.548;2023-04-24T07:19:25;9.20;81.10
78345;DHT22;67620;51.134;6.548;2023-04-24T07:21:50;9.20;81.40
78345;DHT22;67620;51.134;6.548;2023-04-24T07:24:16;9.30;80.00
78345;DHT22;67620;51.134;6.548;2023-04-24T07:26:41;9.20;78.00
78345;DHT22;67620;51.134;6.548;2023-04-24T07:29:07;9.00;76.60
78345;DHT22;67620;51.134;6.548;2023-04-24T07:31:33;8.90;77.90
78345;DHT22;67620;51.134;6.548;2023-04-24T07:33:59;8.90;77.80
78345;DHT22;67620;51.134;6.548;2023-04-24T07:36:24;8.90;77.60
78345;DHT22;67620;51.134;6.548;2023-04-24T07:38:51;8.80;78.10
78345;DHT22;67620;51.134;6.548;2023-04-24T07:41:17;8.80;78.00
78345;DHT22;67620;51.134;6.548;2023-04-24T07:43:43;8.80;77.10
78345;DHT22;67620;51.134;6.548;2023-04-24T07:46:09;8.90;77.90
78345;DHT22;67620;51.134;6.548;2023-04-24T07:48:35;8.90;77.10
78345;DHT22;67620;51.134;6.548;2023-04-24T07:51:01;8.80;76.20
78345;DHT22;67620;51.134;6.548;2023-04-24T07:53:26;8.70;77.80
78345;DHT22;67620;51.134;6.548;2023-04-24T07:55:54;8.60;77.90
78345;DHT22;67620;51.134;6.548;2023-04-24T07:58:20;8.60;78.10
78345;DHT22;67620;51.134;6.548;2023-04-24T08:00:46;8.60;79.60
78345;DHT22;67620;51.134;6.548;2023-04-24T08:03:12;8.60;79.60
78345;DHT22;67620;51.134;6.548;2023-04-24T08:05:38;8.50;81.40
78345;DHT22;67620;51.134;6.548;2023-04-24T08:08:03;8.50;81.50
78345;DHT22;67620;51.134;6.548;2023-04-24T08:10:29;8.50;82.00
78345;DHT22;67620;51.134;6.548;2023-04-24T08:12:54;8.60;82.00
78345;DHT22;67620;51.134;6.548;2023-04-24T08:15:20;8.60;81.50
78345;DHT22;67620;51.134;6.548;2023-04-24T08:17:46;8.70;82.10
78345;DHT22;67620;51.134;6.548;2023-04-24T08:20:13;8.70;82.10
78345;DHT22;67620;51.134;6.548;2023-04-24T08:22:42;8.70;81.80
78345;DHT22;67620;51.134;6.548;2023-04-24T08:25:09;8.70;81.80
78345;DHT22;67620;51.134;6.548;2023-04-24T08:27:35;8.80;81.90
78345;DHT22;67620;51.134;6.548;2023-04-24T08:30:03;8.80;81.70
78345;DHT22;67620;51.134;6.548;2023-04-24T08:32:29;8.80;82.50
78345;DHT22;67620;51.134;6.548;2023-04-24T08:34:55;8.80;82.40
78345;DHT22;67620;51.134;6.548;2023-04-24T08:37:22;8.90;81.80
78345;DHT22;67620;51.134;6.548;2023-04-24T08:39:48;8.80;81.90
78345;DHT22;67620;51.134;6.548;2023-04-24T08:42:14;8.90;82.40
78345;DHT22;67620;51.134;6.548;2023-04-24T08:44:40;8.80;82.50
78345;DHT22;67620;51.134;6.548;2023-04-24T08:47:07;8.90;82.20
78345;DHT22;67620;51.134;6.548;2023-04-24T08:49:33;8.80;82.00
78345;DHT22;67620;51.134;6.548;2023-04-24T08:52:01;8.80;82.50
78345;DHT22;67620;51.134;6.548;2023-04-24T08:54:28;8.80;82.20
78345;DHT22;67620;51.134;6.548;2023-04-24T08:56:58;8.80;82.40
78345;DHT22;67620;51.134;6.548;2023-04-24T08:59:26;8.80;82.00
78345;DHT22;67620;51.134;6.548;2023-04-24T09:01:52;8.80;82.10
78345;DHT22;67620;51.134;6.548;2023-04-24T09:04:19;8.80;82.20
78345;DHT22;67620;51.134;6.548;2023-04-24T09:06:48;8.80;82.20
78345;DHT22;67620;51.134;6.548;2023-04-24T09:09:16;8.90;82.00
78345;DHT22;67620;51.134;6.548;2023-04-24T09:11:42;8.80;82.00
78345;DHT22;67620;51.134;6.548;2023-04-24T09:14:09;8.80;81.70
78345;DHT22;67620;51.134;6.548;2023-04-24T09:16:35;8.80;82.10
78345;DHT22;67620;51.134;6.548;2023-04-24T09:19:01;8.80;82.70
78345;DHT22;67620;51.134;6.548;2023-04-24T09:21:34;8.90;82.20
78345;DHT22;67620;51.134;6.548;2023-04-24T09:24:03;8.90;82.00
78345;DHT22;67620;51.134;6.548;2023-04-24T09:26:31;8.80;83.50
78345;DHT22;67620;51.134;6.548;2023-04-24T09:28:57;8.90;83.30
78345;DHT22;67620;51.134;6.548;2023-04-24T09:31:23;9.00;83.20
78345;DHT22;67620;51.134;6.548;2023-04-24T09:33:57;9.00;83.30
78345;DHT22;67620;51.134;6.548;2023-04-24T09:36:30;9.00;83.70
78345;DHT22;67620;51.134;6.548;2023-04-24T09:39:00;9.00;83.70
78345;DHT22;67620;51.134;6.548;2023-04-24T09:41:26;9.00;84.10
78345;DHT22;67620;51.134;6.548;2023-04-24T09:43:54;9.00;84.00
78345;DHT22;67620;51.134;6.548;2023-04-24T09:46:20;9.00;84.00
78345;DHT22;67620;51.134;6.548;2023-04-24T09:48:47;9.10;84.40
78345;DHT22;67620;51.134;6.548;2023-04-24T09:51:13;9.10;84.10
78345;DHT22;67620;51.134;6.548;2023-04-24T09:53:45;9.10;84.00
78345;DHT22;67620;51.134;6.548;2023-04-24T09:56:11;9.20;84.80
78345;DHT22;67620;51.134;6.548;2023-04-24T09:58:38;9.20;84.30
78345;DHT22;67620;51.134;6.548;2023-04-24T10:01:04;9.20;85.00
78345;DHT22;67620;51.134;6.548;2023-04-24T10:03:32;9.20;84.70
78345;DHT22;67620;51.134;6.548;2023-04-24T10:06:01;9.20;84.80
78345;DHT22;67620;51.134;6.548;2023-04-24T10:08:33;9.30;84.10
78345;DHT22;67620;51.134;6.548;2023-04-24T10:10:59;9.30;84.30
78345;DHT22;67620;51.134;6.548;2023-04-24T10:13:25;9.30;84.80
78345;DHT22;67620;51.134;6.548;2023-04-24T10:15:51;9.40;84.70
78345;DHT22;67620;51.134;6.548;2023-04-24T10:18:17;9.30;82.50
78345;DHT22;67620;51.134;6.548;2023-04-24T10:20:46;9.20;83.50
78345;DHT22;67620;51.134;6.548;2023-04-24T10:23:12;9.30;83.50
78345;DHT22;67620;51.134;6.548;2023-04-24T10:25:37;9.30;83.50
78345;DHT22;67620;51.134;6.548;2023-04-24T10:28:03;9.30;83.50
78345;DHT22;67620;51.134;6.548;2023-04-24T10:30:30;9.20;82.00
78345;DHT22;67620;51.134;6.548;2023-04-24T10:32:56;9.30;82.70
78345;DHT22;67620;51.134;6.548;2023-04-24T10:35:22;9.30;83.50
78345;DHT22;67620;51.134;6.548;2023-04-24T10:37:57;9.30;83.60
78345;DHT22;67620;51.134;6.548;2023-04-24T10:40:34;9.30;82.90
78345;DHT22;67620;51.134;6.548;2023-04-24T10:43:03;9.30;83.60
78345;DHT22;67620;51.134;6.548;2023-04-24T10:45:31;9.30;83.60
78345;DHT22;67620;51.134;6.548;2023-04-24T10:47:59;9.40;83.20
78345;DHT22;67620;51.134;6.548;2023-04-24T10:50:27;9.30;83.60
78345;DHT22;67620;51.134;6.548;2023-04-24T10:52:53;9.40;84.30
78345;DHT22;67620;51.134;6.548;2023-04-24T10:55:49;9.40;83.60
78345;DHT22;67620;51.134;6.548;2023-04-24T10:58:16;9.40;83.20
78345;DHT22;67620;51.134;6.548;2023-04-24T11:00:58;9.50;82.90
78345;DHT22;67620;51.134;6.548;2023-04-24T11:03:29;9.50;83.60
78345;DHT22;67620;51.134;6.548;2023-04-24T11:08:43;9.70;84.70
78345;DHT22;67620;51.134;6.548;2023-04-24T11:11:15;9.70;84.40
78345;DHT22;67620;51.134;6.548;2023-04-24T11:19:24;9.90;84.10
78345;DHT22;67620;51.134;6.548;2023-04-24T11:22:04;10.00;84.50
78345;DHT22;67620;51.134;6.548;2023-04-24T11:24:53;10.00;83.80
78345;DHT22;67620;51.134;6.548;2023-04-24T11:27:20;10.00;83.00
78345;DHT22;67620;51.134;6.548;2023-04-24T11:29:48;10.00;82.30
78345;DHT22;67620;51.134;6.548;2023-04-24T11:32:18;10.00;82.20
78345;DHT22;67620;51.134;6.548;2023-04-24T11:34:53;10.00;80.10
78345;DHT22;67620;51.134;6.548;2023-04-24T11:37:19;10.00;78.80
78345;DHT22;67620;51.134;6.548;2023-04-24T11:39:45;10.00;77.60
78345;DHT22;67620;51.134;6.548;2023-04-24T11:42:10;9.90;76.70
78345;DHT22;67620;51.134;6.548;2023-04-24T11:44:39;9.90;80.00
78345;DHT22;67620;51.134;6.548;2023-04-24T11:47:06;10.00;79.50
78345;DHT22;67620;51.134;6.548;2023-04-24T11:49:38;10.10;77.40
78345;DHT22;67620;51.134;6.548;2023-04-24T11:52:04;10.10;78.30
78345;DHT22;67620;51.134;6.548;2023-04-24T11:54:30;10.10;79.10
78345;DHT22;67620;51.134;6.548;2023-04-24T11:56:57;10.10;75.70
78345;DHT22;67620;51.134;6.548;2023-04-24T11:59:22;10.10;77.40
78345;DHT22;67620;51.134;6.548;2023-04-24T12:01:49;10.20;76.40
78345;DHT22;67620;51.134;6.548;2023-04-24T12:04:16;10.20;76.10
78345;DHT22;67620;51.134;6.548;2023-04-24T12:07:01;10.20;76.70
78345;DHT22;67620;51.134;6.548;2023-04-24T12:09:27;10.30;75.20
78345;DHT22;67620;51.134;6.548;2023-04-24T12:11:56;10.40;76.20
78345;DHT22;67620;51.134;6.548;2023-04-24T12:14:25;10.40;77.80
78345;DHT22;67620;51.134;6.548;2023-04-24T12:16:50;10.50;74.80
78345;DHT22;67620;51.134;6.548;2023-04-24T12:19:23;10.50;74.80
78345;DHT22;67620;51.134;6.548;2023-04-24T12:22:05;10.50;74.30
78345;DHT22;67620;51.134;6.548;2023-04-24T12:24:31;10.50;73.20
78345;DHT22;67620;51.134;6.548;2023-04-24T12:26:57;10.40;72.50
78345;DHT22;67620;51.134;6.548;2023-04-24T12:29:23;10.50;72.60
78345;DHT22;67620;51.134;6.548;2023-04-24T12:31:50;10.50;73.60
78345;DHT22;67620;51.134;6.548;2023-04-24T12:34:23;10.50;71.80
78345;DHT22;67620;51.134;6.548;2023-04-24T12:36:50;10.60;71.90
78345;DHT22;67620;51.134;6.548;2023-04-24T12:39:19;10.60;71.90
78345;DHT22;67620;51.134;6.548;2023-04-24T12:41:50;10.60;70.90
78345;DHT22;67620;51.134;6.548;2023-04-24T12:44:19;10.50;69.40
78345;DHT22;67620;51.134;6.548;2023-04-24T14:21:11;10.80;64.00
78345;DHT22;67620;51.134;6.548;2023-04-24T14:23:36;10.90;65.00
78345;DHT22;67620;51.134;6.548;2023-04-24T14:26:02;10.90;64.20
78345;DHT22;67620;51.134;6.548;2023-04-24T14:28:27;11.00;64.50
78345;DHT22;67620;51.134;6.548;2023-04-24T14:30:53;11.10;65.40
78345;DHT22;67620;51.134;6.548;2023-04-24T14:55:02;11.20;65.50
78345;DHT22;67620;51.134;6.548;2023-04-24T14:57:28;11.30;65.70
78345;DHT22;67620;51.134;6.548;2023-04-24T14:59:53;11.30;65.80
78345;DHT22;67620;51.134;6.548;2023-04-24T15:02:19;11.40;66.00
78345;DHT22;67620;51.134;6.548;2023-04-24T15:04:44;11.40;66.50
78345;DHT22;67620;51.134;6.548;2023-04-24T15:07:10;11.40;65.00
78345;DHT22;67620;51.134;6.548;2023-04-24T15:09:35;11.40;63.70
78345;DHT22;67620;51.134;6.548;2023-04-24T15:12:01;11.50;63.90
78345;DHT22;67620;51.134;6.548;2023-04-24T15:14:28;11.40;63.20
78345;DHT22;67620;51.134;6.548;2023-04-24T15:16:53;11.30;64.40
78345;DHT22;67620;51.134;6.548;2023-04-24T15:19:19;11.30;64.50
78345;DHT22;67620;51.134;6.548;2023-04-24T15:21:45;11.30;63.10
78345;DHT22;67620;51.134;6.548;2023-04-24T15:24:10;11.30;63.40
78345;DHT22;67620;51.134;6.548;2023-04-24T15:26:43;11.30;63.70
78345;DHT22;67620;51.134;6.548;2023-04-24T15:29:08;11.30;64.00
78345;DHT22;67620;51.134;6.548;2023-04-24T15:31:34;11.30;63.60
78345;DHT22;67620;51.134;6.548;2023-04-24T15:33:59;11.30;62.50
78345;DHT22;67620;51.134;6.548;2023-04-24T15:36:25;11.30;63.00
78345;DHT22;67620;51.134;6.548;2023-04-24T15:38:50;11.30;63.60
78345;DHT22;67620;51.134;6.548;2023-04-24T15:41:16;11.30;61.50
78345;DHT22;67620;51.134;6.548;2023-04-24T15:43:41;11.40;61.50
78345;DHT22;67620;51.134;6.548;2023-04-24T15:46:08;11.40;62.20
78345;DHT22;67620;51.134;6.548;2023-04-24T15:48:34;11.40;61.70
78345;DHT22;67620;51.134;6.548;2023-04-24T15:51:00;11.50;62.20
78345;DHT22;67620;51.134;6.548;2023-04-24T15:53:26;11.50;63.00
78345;DHT22;67620;51.134;6.548;2023-04-24T15:55:54;11.50;62.80
78345;DHT22;67620;51.134;6.548;2023-04-24T15:58:22;11.40;63.50
78345;DHT22;67620;51.134;6.548;2023-04-24T16:00:48;11.40;62.80
78345;DHT22;67620;51.134;6.548;2023-04-24T16:03:13;11.40;62.10
78345;DHT22;67620;51.134;6.548;2023-04-24T16:05:39;11.40;61.50
78345;DHT22;67620;51.134;6.548;2023-04-24T16:08:05;11.40;61.20
78345;DHT22;67620;51.134;6.548;2023-04-24T16:10:31;11.40;61.00
78345;DHT22;67620;51.134;6.548;2023-04-24T16:12:57;11.40;61.90
78345;DHT22;67620;51.134;6.548;2023-04-24T16:15:22;11.40;58.10
78345;DHT22;67620;51.134;6.548;2023-04-24T16:17:48;11.40;60.90
78345;DHT22;67620;51.134;6.548;2023-04-24T16:20:15;11.40;62.00
78345;DHT22;67620;51.134;6.548;2023-04-24T16:22:40;11.40;62.20
78345;DHT22;67620;51.134;6.548;2023-04-24T16:25:07;11.40;61.20
78345;DHT22;67620;51.134;6.548;2023-04-24T16:27:33;11.30;61.30
78345;DHT22;67620;51.134;6.548;2023-04-24T16:29:59;11.30;61.30
78345;DHT22;67620;51.134;6.548;2023-04-24T16:32:24;11.30;61.60
78345;DHT22;67620;51.134;6.548;2023-04-24T16:34:50;11.30;62.10
78345;DHT22;67620;51.134;6.548;2023-04-24T16:37:16;11.30;62.00
78345;DHT22;67620;51.134;6.548;2023-04-24T16:39:42;11.30;62.30
78345;DHT22;67620;51.134;6.548;2023-04-24T16:42:11;11.40;62.20
78345;DHT22;67620;51.134;6.548;2023-04-24T16:44:40;11.40;62.20
78345;DHT22;67620;51.134;6.548;2023-04-24T16:47:07;11.40;62.70
78345;DHT22;67620;51.134;6.548;2023-04-24T16:49:34;11.40;62.60
78345;DHT22;67620;51.134;6.548;2023-04-24T16:52:00;11.40;61.90
78345;DHT22;67620;51.134;6.548;2023-04-24T16:54:25;11.40;61.80
78345;DHT22;67620;51.134;6.548;2023-04-24T16:56:52;11.40;61.50
78345;DHT22;67620;51.134;6.548;2023-04-24T16:59:18;11.40;61.90
78345;DHT22;67620;51.134;6.548;2023-04-24T17:01:43;11.30;60.60
78345;DHT22;67620;51.134;6.548;2023-04-24T17:04:09;11.30;60.50
78345;DHT22;67620;51.134;6.548;2023-04-24T17:06:34;11.40;60.40
78345;DHT22;67620;51.134;6.548;2023-04-24T17:09:00;11.30;60.80
78345;DHT22;67620;51.134;6.548;2023-04-24T17:11:26;11.30;61.40
78345;DHT22;67620;51.134;6.548;2023-04-24T17:13:51;11.30;62.10
78345;DHT22;67620;51.134;6.548;2023-04-24T17:16:17;11.30;62.50
78345;DHT22;67620;51.134;6.548;2023-04-24T17:18:43;11.30;62.80
78345;DHT22;67620;51.134;6.548;2023-04-24T17:21:08;11.30;62.50
78345;DHT22;67620;51.134;6.548;2023-04-24T17:23:34;11.20;62.00
78345;DHT22;67620;51.134;6.548;2023-04-24T17:25:59;11.20;61.60
78345;DHT22;67620;51.134;6.548;2023-04-24T17:28:26;11.20;61.20
78345;DHT22;67620;51.134;6.548;2023-04-24T17:30:53;11.20;61.90
78345;DHT22;67620;51.134;6.548;2023-04-24T17:33:20;11.20;61.90
78345;DHT22;67620;51.134;6.548;2023-04-24T17:35:45;11.20;62.30
78345;DHT22;67620;51.134;6.548;2023-04-24T17:38:11;11.10;63.30